createdAt,value
2023-04-17T00:02:15.990Z,49.95
2023-04-17T00:04:45.587Z,49.28
2023-04-17T00:07:12.628Z,47.88
2023-04-17T00:09:39.701Z,47.60
2023-04-17T00:12:06.885Z,41.47
2023-04-17T00:14:33.895Z,39.97
2023-04-17T00:17:00.838Z,37.80
2023-04-17T00:19:27.668Z,37.10
2023-04-17T00:21:54.640Z,37.22
2023-04-17T00:24:21.616Z,35.55
2023-04-17T00:26:48.461Z,39.25
2023-04-17T00:29:15.624Z,39.92
2023-04-17T00:31:42.875Z,40.60
2023-04-17T00:34:09.877Z,38.42
2023-04-17T00:36:36.801Z,39.50
2023-04-17T00:39:03.964Z,33.88
2023-04-17T00:41:30.882Z,33.78
2023-04-17T00:43:57.709Z,33.83
2023-04-17T00:46:24.828Z,33.00
2023-04-17T00:48:52.317Z,30.65
2023-04-17T00:51:19.590Z,31.65
2023-04-17T00:53:46.749Z,30.48
2023-04-17T00:56:13.805Z,31.10
2023-04-17T00:58:41.216Z,29.23
2023-04-17T01:01:08.643Z,26.25
2023-04-17T01:03:36.113Z,25.80
2023-04-17T01:06:03.828Z,25.08
2023-04-17T01:08:43.883Z,28.00
2023-04-17T01:11:11.584Z,27.95
2023-04-17T01:13:48.724Z,24.08
2023-04-17T01:16:16.347Z,27.88
2023-04-17T01:18:43.460Z,25.73
2023-04-17T01:21:10.469Z,27.67
2023-04-17T01:23:51.895Z,28.30
2023-04-17T01:26:25.833Z,29.95
2023-04-17T01:28:53.587Z,28.48
2023-04-17T01:31:21.256Z,27.33
2023-04-17T01:33:49.354Z,30.83
2023-04-17T01:36:16.761Z,35.28
2023-04-17T01:38:43.945Z,28.10
2023-04-17T01:41:11.614Z,31.02
2023-04-17T01:43:42.410Z,27.98
2023-04-17T01:46:09.488Z,27.38
2023-04-17T01:48:37.237Z,27.98
2023-04-17T01:51:04.745Z,28.38
2023-04-17T01:53:32.631Z,29.45
2023-04-17T01:56:01.692Z,27.10
2023-04-17T01:58:28.668Z,30.42
2023-04-17T02:00:55.830Z,24.75
2023-04-17T02:03:24.570Z,27.70
2023-04-17T02:05:53.593Z,30.30
2023-04-17T02:08:20.503Z,26.48
2023-04-17T02:10:47.464Z,26.77
2023-04-17T02:13:14.478Z,29.40
2023-04-17T02:15:41.720Z,30.67
2023-04-17T02:18:09.459Z,32.50
2023-04-17T02:20:37.368Z,34.00
2023-04-17T02:23:06.595Z,33.78
2023-04-17T02:25:34.342Z,36.10
2023-04-17T02:28:01.479Z,37.35
2023-04-17T02:30:28.630Z,38.63
2023-04-17T02:32:56.518Z,40.92
2023-04-17T02:35:26.704Z,40.63
2023-04-17T02:37:53.822Z,42.65
2023-04-17T02:40:21.341Z,38.63
2023-04-17T02:42:48.246Z,38.03
2023-04-17T02:45:15.502Z,38.78
2023-04-17T02:47:42.528Z,44.67
2023-04-17T02:50:10.172Z,50.25
2023-04-17T02:52:37.090Z,54.03
2023-04-17T02:55:04.278Z,49.65
2023-04-17T02:57:31.131Z,52.45
2023-04-17T02:59:58.061Z,56.58
2023-04-17T03:02:25.027Z,54.33
2023-04-17T03:04:52.633Z,58.83
2023-04-17T03:07:21.214Z,56.53
2023-04-17T03:09:48.422Z,55.55
2023-04-17T03:12:16.563Z,49.55
2023-04-17T03:14:44.086Z,46.85
2023-04-17T03:17:11.892Z,47.92
2023-04-17T03:19:38.725Z,54.22
2023-04-17T03:22:05.860Z,66.68
2023-04-17T03:24:33.426Z,61.70
2023-04-17T03:27:01.124Z,66.13
2023-04-17T03:29:28.709Z,58.22
2023-04-17T03:31:55.857Z,55.90
2023-04-17T03:34:22.799Z,49.55
2023-04-17T03:36:49.855Z,51.78
2023-04-17T03:39:17.001Z,52.78
2023-04-17T03:41:43.879Z,48.30
2023-04-17T03:44:10.772Z,57.55
2023-04-17T03:46:38.417Z,60.30
2023-04-17T03:49:05.774Z,56.67
2023-04-17T03:51:32.788Z,55.28
2023-04-17T03:54:00.115Z,55.08
2023-04-17T03:56:27.213Z,72.13
2023-04-17T03:58:54.187Z,78.15
2023-04-17T04:01:22.480Z,82.07
2023-04-17T04:03:50.709Z,81.57
2023-04-17T04:06:20.339Z,84.22
2023-04-17T04:08:47.314Z,86.22
2023-04-17T04:11:14.177Z,87.45
2023-04-17T04:13:41.272Z,93.80
2023-04-17T04:16:08.736Z,104.18
2023-04-17T04:18:37.170Z,98.97
2023-04-17T04:21:04.171Z,106.15
2023-04-17T04:23:31.125Z,109.25
2023-04-17T04:26:01.981Z,103.43
2023-04-17T04:28:30.308Z,104.80
2023-04-17T04:30:58.843Z,106.70
2023-04-17T04:33:25.874Z,107.40
2023-04-17T04:35:56.107Z,105.32
2023-04-17T04:38:29.968Z,97.20
2023-04-17T04:41:06.475Z,85.63
2023-04-17T04:43:34.078Z,88.38
2023-04-17T04:46:01.385Z,86.97
2023-04-17T04:48:28.943Z,88.88
2023-04-17T04:50:56.471Z,88.90
2023-04-17T04:53:23.361Z,85.38
2023-04-17T04:55:50.248Z,90.43
2023-04-17T04:58:17.116Z,86.13
2023-04-17T05:00:44.204Z,86.43
2023-04-17T05:03:11.335Z,85.75
2023-04-17T05:05:38.618Z,88.35
2023-04-17T05:08:05.921Z,96.78
2023-04-17T05:10:33.437Z,97.03
2023-04-17T05:13:00.276Z,94.28
2023-04-17T05:15:27.913Z,95.55
2023-04-17T05:17:54.751Z,87.32
2023-04-17T05:20:21.852Z,92.95
2023-04-17T05:22:49.706Z,94.45
2023-04-17T05:25:16.707Z,99.68
2023-04-17T05:27:43.758Z,96.72
2023-04-17T05:30:11.369Z,105.90
2023-04-17T05:32:38.587Z,99.55
2023-04-17T05:35:06.469Z,94.78
2023-04-17T05:37:33.405Z,103.40
2023-04-17T05:40:01.373Z,100.47
2023-04-17T05:42:28.239Z,101.75
2023-04-17T05:44:55.056Z,100.95
2023-04-17T05:47:21.893Z,104.45
2023-04-17T05:49:51.208Z,94.85
2023-04-17T05:52:18.458Z,94.93
2023-04-17T05:54:45.587Z,107.95
2023-04-17T05:57:12.510Z,106.30
2023-04-17T05:59:39.670Z,101.47
2023-04-17T06:02:08.105Z,93.72
2023-04-17T06:04:36.601Z,92.53
2023-04-17T06:07:06.275Z,99.45
2023-04-17T06:09:33.606Z,97.90
2023-04-17T06:12:00.733Z,99.80
2023-04-17T06:14:27.753Z,105.70
2023-04-17T06:16:54.959Z,109.18
2023-04-17T06:19:22.517Z,109.80
2023-04-17T06:21:50.016Z,117.63
2023-04-17T06:24:18.836Z,107.07
2023-04-17T06:26:45.852Z,108.07
2023-04-17T06:29:13.940Z,109.25
2023-04-17T06:31:41.189Z,114.97
2023-04-17T06:34:08.224Z,105.32
2023-04-17T06:36:35.074Z,111.47
2023-04-17T06:39:02.002Z,104.45
2023-04-17T06:41:29.207Z,102.93
2023-04-17T06:43:56.355Z,99.38
2023-04-17T06:46:23.665Z,98.93
2023-04-17T06:48:52.371Z,96.88
2023-04-17T06:51:21.065Z,91.18
2023-04-17T06:53:48.448Z,100.65
2023-04-17T06:56:15.565Z,98.07
2023-04-17T06:58:46.346Z,108.75
2023-04-17T07:01:14.277Z,104.35
2023-04-17T07:03:44.505Z,103.55
2023-04-17T07:06:13.481Z,117.32
2023-04-17T07:08:40.399Z,106.40
2023-04-17T07:11:07.554Z,102.68
2023-04-17T07:13:34.842Z,105.32
2023-04-17T07:16:02.094Z,109.82
2023-04-17T07:18:31.997Z,122.45
2023-04-17T07:20:58.977Z,113.90
2023-04-17T07:23:26.083Z,120.88
2023-04-17T07:25:53.256Z,114.03
2023-04-17T07:28:20.366Z,105.97
2023-04-17T07:30:47.415Z,105.68
2023-04-17T07:33:14.655Z,105.53
2023-04-17T07:35:43.022Z,103.88
2023-04-17T07:38:09.916Z,108.53
2023-04-17T07:40:37.038Z,110.20
2023-04-17T07:43:04.263Z,99.80
2023-04-17T07:45:31.755Z,96.00
2023-04-17T07:47:58.844Z,100.22
2023-04-17T07:50:25.829Z,102.18
2023-04-17T07:52:52.733Z,97.05
2023-04-17T07:55:19.912Z,93.90
2023-04-17T07:57:47.028Z,97.30
2023-04-17T08:00:14.841Z,98.00
2023-04-17T08:02:42.871Z,94.88
2023-04-17T08:05:10.631Z,97.93
2023-04-17T08:07:37.884Z,96.82
2023-04-17T08:10:05.821Z,91.53
2023-04-17T08:12:33.478Z,98.53
2023-04-17T08:15:00.308Z,95.80
2023-04-17T08:17:30.073Z,85.40
2023-04-17T08:19:57.747Z,85.15
2023-04-17T08:22:26.143Z,86.20
2023-04-17T08:24:57.687Z,91.32
2023-04-17T08:27:25.805Z,77.50
2023-04-17T08:29:53.769Z,80.18
2023-04-17T08:32:21.586Z,76.78
2023-04-17T08:34:48.810Z,74.43
2023-04-17T08:37:15.761Z,71.60
2023-04-17T08:39:42.820Z,73.43
2023-04-17T08:42:15.394Z,65.55
2023-04-17T08:44:45.640Z,71.30
2023-04-17T08:47:13.513Z,80.80
2023-04-17T08:49:43.818Z,84.20
2023-04-17T08:52:11.586Z,71.38
2023-04-17T08:54:39.670Z,73.35
2023-04-17T08:57:06.875Z,83.60
2023-04-17T08:59:34.176Z,87.35
2023-04-17T09:02:08.590Z,80.97
2023-04-17T09:04:39.493Z,83.75
2023-04-17T09:07:07.540Z,84.70
2023-04-17T09:10:00.824Z,83.82
2023-04-17T09:12:28.181Z,82.85
2023-04-17T09:14:55.667Z,76.35
2023-04-17T09:17:22.835Z,70.35
2023-04-17T09:20:10.023Z,74.35
2023-04-17T09:22:39.326Z,66.25
2023-04-17T09:25:17.678Z,69.30
2023-04-17T09:27:45.399Z,69.97
2023-04-17T09:30:13.657Z,72.38
2023-04-17T09:32:41.025Z,72.53
2023-04-17T09:35:08.277Z,74.10
2023-04-17T09:37:55.532Z,79.13
2023-04-17T09:40:25.130Z,75.57
2023-04-17T09:42:59.403Z,77.18
2023-04-17T09:45:33.177Z,81.05
2023-04-17T09:48:01.062Z,74.30
2023-04-17T09:50:28.784Z,73.07
2023-04-17T09:52:56.216Z,73.72
2023-04-17T09:55:26.605Z,68.95
2023-04-17T09:57:57.978Z,72.72
2023-04-17T10:00:27.662Z,73.30
2023-04-17T10:02:57.443Z,77.78
2023-04-17T10:05:30.253Z,67.97
2023-04-17T10:07:57.913Z,65.60
2023-04-17T10:10:27.610Z,47.03
2023-04-17T10:12:57.395Z,43.40
2023-04-17T10:15:25.696Z,43.65
2023-04-17T10:17:53.785Z,45.97
2023-04-17T10:20:24.076Z,46.47
2023-04-17T10:22:56.981Z,47.20
2023-04-17T10:25:27.953Z,41.88
2023-04-17T10:28:02.285Z,45.38
2023-04-17T10:30:53.974Z,46.67
2023-04-17T10:33:26.048Z,48.10
2023-04-17T10:35:54.012Z,54.03
2023-04-17T10:38:35.491Z,43.30
2023-04-17T10:41:04.305Z,46.10
2023-04-17T10:43:32.119Z,45.67
2023-04-17T10:46:12.476Z,42.00
2023-04-17T10:48:52.684Z,40.00
2023-04-17T10:51:28.997Z,41.00
2023-04-17T10:53:56.817Z,35.35
2023-04-17T10:56:39.601Z,36.97
2023-04-17T10:59:10.400Z,38.53
2023-04-17T11:01:37.596Z,43.72
2023-04-17T11:04:04.949Z,49.17
2023-04-17T11:06:37.296Z,54.35
2023-04-17T11:09:07.653Z,65.30
2023-04-17T11:11:44.047Z,49.22
2023-04-17T11:14:14.871Z,42.53
2023-04-17T11:16:44.234Z,50.40
2023-04-17T11:19:16.855Z,42.60
2023-04-17T11:21:54.303Z,44.00
2023-04-17T11:24:24.818Z,39.65
2023-04-17T11:26:51.951Z,59.65
2023-04-17T11:29:21.953Z,64.57
2023-04-17T11:31:52.043Z,45.63
2023-04-17T11:34:19.396Z,42.20
2023-04-17T11:37:04.436Z,48.65
2023-04-17T11:39:34.003Z,45.40
2023-04-17T11:42:05.184Z,41.33
2023-04-17T11:44:32.376Z,44.88
2023-04-17T11:46:59.532Z,77.05
2023-04-17T11:49:30.621Z,148.27
2023-04-17T11:52:01.339Z,106.35
2023-04-17T11:54:38.856Z,81.72
2023-04-17T11:57:12.876Z,81.22
2023-04-17T11:59:42.306Z,53.83
2023-04-17T12:02:10.570Z,55.92
2023-04-17T12:04:40.141Z,43.17
2023-04-17T12:07:08.578Z,44.10
2023-04-17T12:09:36.939Z,49.65
2023-04-17T12:12:08.029Z,54.72
2023-04-17T12:14:35.622Z,59.15
2023-04-17T12:17:02.485Z,59.20
2023-04-17T12:19:31.853Z,61.08
2023-04-17T12:21:59.670Z,61.53
2023-04-17T12:24:26.789Z,57.92
2023-04-17T12:26:53.841Z,62.05
2023-04-17T12:29:29.386Z,75.60
2023-04-17T12:32:07.904Z,87.45
2023-04-17T12:34:35.082Z,89.35
2023-04-17T12:37:02.013Z,102.77
2023-04-17T12:39:29.165Z,86.90
2023-04-17T12:41:56.445Z,81.40
2023-04-17T12:44:23.429Z,101.00
2023-04-17T12:46:50.525Z,81.25
2023-04-17T12:49:17.568Z,72.57
2023-04-17T12:51:44.593Z,68.10
2023-04-17T12:54:11.849Z,70.25
2023-04-17T12:56:38.961Z,72.10
2023-04-17T12:59:05.864Z,64.68
2023-04-17T13:01:32.943Z,66.70
2023-04-17T13:04:00.250Z,69.03
2023-04-17T13:06:28.466Z,67.30
2023-04-17T13:08:55.630Z,66.70
2023-04-17T13:11:22.658Z,66.00
2023-04-17T13:13:49.625Z,63.75
2023-04-17T13:16:16.700Z,61.92
2023-04-17T13:18:43.567Z,56.00
2023-04-17T13:21:10.762Z,56.38
2023-04-17T13:23:37.644Z,55.00
2023-04-17T13:26:04.988Z,53.10
2023-04-17T13:28:31.967Z,52.45
2023-04-17T13:30:58.950Z,51.95
2023-04-17T13:33:25.869Z,55.25
2023-04-17T13:35:53.938Z,56.13
2023-04-17T13:38:20.896Z,56.58
2023-04-17T13:40:47.721Z,49.20
2023-04-17T13:43:14.587Z,44.25
2023-04-17T13:45:41.494Z,51.88
2023-04-17T13:48:08.366Z,47.88
2023-04-17T13:50:35.366Z,47.55
2023-04-17T13:53:02.334Z,51.17
2023-04-17T13:55:29.393Z,46.30
2023-04-17T13:57:57.566Z,48.95
2023-04-17T14:00:24.597Z,46.28
2023-04-17T14:02:52.020Z,46.20
2023-04-17T14:05:19.074Z,47.65
2023-04-17T14:07:46.160Z,46.53
2023-04-17T14:10:13.152Z,44.75
2023-04-17T14:12:39.950Z,41.33
2023-04-17T14:15:07.538Z,48.45
2023-04-17T14:17:38.075Z,41.60
2023-04-17T14:20:06.001Z,45.70
2023-04-17T14:22:33.028Z,44.30
2023-04-17T14:24:59.833Z,44.28
2023-04-17T14:27:26.936Z,44.95
2023-04-17T14:29:53.868Z,40.95
2023-04-17T14:32:20.880Z,43.60
2023-04-17T14:34:47.691Z,45.90
2023-04-17T14:37:14.668Z,43.58
2023-04-17T14:39:41.572Z,46.92
2023-04-17T14:42:08.818Z,38.83
2023-04-17T14:44:35.819Z,40.35
2023-04-17T14:47:03.021Z,37.80
2023-04-17T14:49:30.496Z,35.88
2023-04-17T14:51:57.369Z,57.20
2023-04-17T14:54:24.309Z,53.70
2023-04-17T14:56:51.274Z,71.78
2023-04-17T14:59:18.296Z,51.85
2023-04-17T15:01:45.324Z,52.80
2023-04-17T15:04:12.736Z,48.70
2023-04-17T15:06:39.765Z,79.03
2023-04-17T15:09:06.979Z,51.15
2023-04-17T15:11:33.869Z,41.63
2023-04-17T15:14:00.859Z,39.47
2023-04-17T15:16:27.841Z,35.55
2023-04-17T15:18:54.642Z,37.38
2023-04-17T15:21:21.647Z,33.40
2023-04-17T15:23:48.746Z,34.58
2023-04-17T15:26:15.696Z,30.55
2023-04-17T15:28:42.585Z,33.00
2023-04-17T15:31:09.731Z,32.63
2023-04-17T15:33:39.091Z,37.40
2023-04-17T15:36:06.176Z,34.78
2023-04-17T15:38:33.290Z,29.48
2023-04-17T15:41:00.866Z,29.13
2023-04-17T15:43:27.937Z,32.38
2023-04-17T15:45:55.558Z,30.88
2023-04-17T15:48:22.623Z,27.63
2023-04-17T15:50:49.698Z,25.92
2023-04-17T15:53:16.688Z,28.42
2023-04-17T15:55:43.694Z,25.50
2023-04-17T15:58:10.742Z,27.05
2023-04-17T16:00:37.755Z,25.52
2023-04-17T16:03:10.145Z,27.67
2023-04-17T16:05:37.792Z,36.40
2023-04-17T16:08:04.732Z,32.78
2023-04-17T16:10:31.534Z,34.15
2023-04-17T16:12:58.484Z,31.23
2023-04-17T16:15:25.531Z,31.48
2023-04-17T16:17:52.707Z,31.27
2023-04-17T16:20:19.670Z,35.15
2023-04-17T16:22:46.723Z,31.90
2023-04-17T16:25:13.702Z,30.65
2023-04-17T16:27:41.202Z,29.98
2023-04-17T16:30:09.394Z,33.22
2023-04-17T16:32:37.185Z,34.00
2023-04-17T16:35:04.301Z,47.70
2023-04-17T16:37:31.061Z,35.83
2023-04-17T16:40:03.096Z,32.83
2023-04-17T16:42:30.089Z,32.55
2023-04-17T16:44:56.849Z,31.00
2023-04-17T16:47:23.719Z,33.05
2023-04-17T16:49:50.782Z,31.83
2023-04-17T16:52:17.681Z,34.65
2023-04-17T16:54:44.715Z,32.90
2023-04-17T16:57:11.606Z,35.35
2023-04-17T16:59:38.592Z,39.90
2023-04-17T17:02:05.945Z,38.53
2023-04-17T17:04:34.881Z,36.80
2023-04-17T17:07:02.312Z,36.10
2023-04-17T17:09:29.603Z,40.10
2023-04-17T17:11:56.981Z,34.40
2023-04-17T17:14:24.060Z,36.58
2023-04-17T17:16:51.116Z,40.55
2023-04-17T17:19:18.034Z,40.40
2023-04-17T17:21:45.081Z,38.92
2023-04-17T17:24:12.200Z,37.97
2023-04-17T17:26:39.208Z,34.45
2023-04-17T17:29:06.168Z,34.55
2023-04-17T17:31:34.516Z,36.30
2023-04-17T17:34:11.873Z,54.05
2023-04-17T17:36:49.314Z,50.42
2023-04-17T17:39:16.731Z,51.20
2023-04-17T17:41:45.876Z,53.20
2023-04-17T17:44:14.689Z,56.65
2023-04-17T17:46:41.948Z,59.20
2023-04-17T17:49:09.678Z,58.67
2023-04-17T17:51:36.839Z,55.00
2023-04-17T17:54:04.041Z,57.80
2023-04-17T17:56:30.883Z,57.45
2023-04-17T17:58:57.848Z,56.40
2023-04-17T18:01:25.109Z,52.83
2023-04-17T18:03:53.463Z,55.20
2023-04-17T18:06:21.209Z,53.42
2023-04-17T18:08:54.163Z,65.72
2023-04-17T18:11:21.297Z,52.28
2023-04-17T18:13:48.379Z,53.17
2023-04-17T18:16:15.580Z,57.92
2023-04-17T18:18:42.889Z,50.65
2023-04-17T18:21:11.177Z,55.22
2023-04-17T18:23:38.066Z,53.83
2023-04-17T18:26:05.109Z,53.60
2023-04-17T18:28:33.040Z,55.72
2023-04-17T18:31:00.083Z,56.88
2023-04-17T18:33:28.785Z,51.97
2023-04-17T18:35:55.628Z,53.08
2023-04-17T18:38:22.581Z,59.35
2023-04-17T18:41:01.110Z,54.58
2023-04-17T18:43:28.527Z,49.22
2023-04-17T18:45:55.347Z,53.42
2023-04-17T18:48:23.248Z,57.92
2023-04-17T18:50:51.071Z,53.50
2023-04-17T18:53:17.902Z,53.67
2023-04-17T18:55:44.825Z,60.03
2023-04-17T18:58:11.661Z,57.28
2023-04-17T19:00:38.689Z,60.22
2023-04-17T19:03:06.773Z,61.08
2023-04-17T19:05:35.125Z,59.33
2023-04-17T19:08:02.033Z,56.80
2023-04-17T19:10:30.067Z,56.47
2023-04-17T19:12:57.024Z,60.78
2023-04-17T19:15:24.389Z,62.78
2023-04-17T19:17:52.403Z,66.35
2023-04-17T19:20:19.735Z,61.60
2023-04-17T19:22:46.726Z,57.25
2023-04-17T19:25:13.852Z,61.15
2023-04-17T19:27:40.655Z,60.13
2023-04-17T19:30:08.605Z,59.35
2023-04-17T19:32:35.661Z,62.47
2023-04-17T19:35:02.583Z,65.45
2023-04-17T19:37:29.534Z,58.40
2023-04-17T19:39:56.813Z,59.63
2023-04-17T19:42:23.793Z,56.67
2023-04-17T19:44:50.737Z,62.65
2023-04-17T19:47:17.610Z,64.95
2023-04-17T19:49:44.894Z,63.13
2023-04-17T19:52:12.202Z,62.28
2023-04-17T19:54:39.413Z,62.53
2023-04-17T19:57:06.457Z,60.30
2023-04-17T19:59:33.359Z,60.40
2023-04-17T20:02:00.416Z,55.60
2023-04-17T20:04:29.410Z,64.47
2023-04-17T20:06:56.629Z,59.25
2023-04-17T20:09:23.846Z,55.67
2023-04-17T20:11:50.684Z,53.15
2023-04-17T20:14:19.575Z,59.85
2023-04-17T20:16:48.743Z,51.53
2023-04-17T20:19:18.870Z,56.78
2023-04-17T20:21:47.141Z,52.42
2023-04-17T20:24:15.959Z,58.35
2023-04-17T20:26:44.353Z,56.03
2023-04-17T20:29:11.535Z,59.40
2023-04-17T20:31:39.013Z,60.88
2023-04-17T20:34:05.992Z,57.15
2023-04-17T20:36:32.904Z,57.13
2023-04-17T20:38:59.749Z,56.13
2023-04-17T20:41:26.931Z,61.50
2023-04-17T20:44:01.157Z,64.78
2023-04-17T20:46:28.823Z,60.53
2023-04-17T20:48:55.876Z,63.83
2023-04-17T20:51:25.212Z,59.85
2023-04-17T20:53:52.912Z,55.35
2023-04-17T20:56:21.719Z,65.88
2023-04-17T20:58:48.672Z,55.30
2023-04-17T21:01:16.662Z,58.13
2023-04-17T21:03:45.840Z,63.35
2023-04-17T21:06:13.023Z,58.63
2023-04-17T21:08:40.110Z,67.82
2023-04-17T21:11:07.096Z,65.97
2023-04-17T21:13:35.138Z,64.80
2023-04-17T21:16:02.378Z,58.58
2023-04-17T21:18:29.348Z,60.50
2023-04-17T21:20:56.480Z,69.85
2023-04-17T21:23:23.466Z,64.38
2023-04-17T21:25:51.902Z,62.60
2023-04-17T21:28:19.088Z,68.13
2023-04-17T21:30:46.582Z,66.32
2023-04-17T21:33:13.423Z,68.18
2023-04-17T21:35:40.286Z,65.97
2023-04-17T21:38:07.161Z,64.47
2023-04-17T21:40:36.682Z,60.08
2023-04-17T21:43:04.490Z,60.67
2023-04-17T21:45:32.232Z,63.63
2023-04-17T21:47:59.190Z,59.17
2023-04-17T21:50:26.459Z,61.42
2023-04-17T21:52:53.286Z,61.92
2023-04-17T21:55:20.453Z,65.78
2023-04-17T21:57:47.401Z,63.60
2023-04-17T22:00:14.650Z,63.20
2023-04-17T22:02:41.683Z,62.58
2023-04-17T22:05:09.380Z,64.85
2023-04-17T22:07:47.241Z,70.20
2023-04-17T22:10:21.047Z,64.10
2023-04-17T22:12:47.829Z,63.70
2023-04-17T22:15:14.741Z,67.65
2023-04-17T22:17:41.575Z,62.10
2023-04-17T22:20:09.133Z,68.18
2023-04-17T22:22:35.998Z,71.38
2023-04-17T22:25:03.054Z,68.65
2023-04-17T22:27:29.847Z,74.10
2023-04-17T22:29:56.662Z,65.95
2023-04-17T22:32:23.718Z,72.30
2023-04-17T22:34:50.706Z,69.22
2023-04-17T22:37:18.488Z,70.95
2023-04-17T22:39:45.449Z,72.90
2023-04-17T22:42:12.393Z,81.50
2023-04-17T22:44:39.238Z,70.25
2023-04-17T22:47:06.122Z,79.28
2023-04-17T22:49:38.079Z,79.00
2023-04-17T22:52:06.230Z,73.38
2023-04-17T22:54:36.769Z,76.85
2023-04-17T22:57:03.987Z,72.40
2023-04-17T22:59:31.013Z,70.50
2023-04-17T23:01:58.268Z,75.30
2023-04-17T23:04:26.946Z,72.93
2023-04-17T23:06:53.781Z,74.68
2023-04-17T23:09:20.721Z,77.68
2023-04-17T23:11:47.725Z,80.07
2023-04-17T23:14:14.997Z,81.20
2023-04-17T23:16:42.062Z,82.03
2023-04-17T23:19:08.855Z,81.53
2023-04-17T23:21:35.906Z,80.53
2023-04-17T23:24:03.068Z,80.78
2023-04-17T23:26:29.977Z,79.00
2023-04-17T23:28:56.782Z,80.85
2023-04-17T23:31:23.919Z,83.20
2023-04-17T23:33:50.819Z,88.30
2023-04-17T23:36:17.703Z,83.85
2023-04-17T23:38:44.522Z,92.93
2023-04-17T23:41:11.686Z,84.80
2023-04-17T23:43:38.704Z,82.43
2023-04-17T23:46:06.288Z,82.97
2023-04-17T23:48:33.121Z,91.57
2023-04-17T23:51:00.440Z,98.95
2023-04-17T23:53:27.215Z,93.72
2023-04-17T23:55:54.443Z,89.90
2023-04-17T23:58:21.475Z,97.60
